createdAt,value
2023-04-20T00:01:55.617Z,54.39
2023-04-20T00:04:24.186Z,54.36
2023-04-20T00:06:53.704Z,54.56
2023-04-20T00:09:22.082Z,54.53
2023-04-20T00:11:50.555Z,54.61
2023-04-20T00:14:19.544Z,54.60
2023-04-20T00:16:48.850Z,54.60
2023-04-20T00:19:18.099Z,54.51
2023-04-20T00:21:46.640Z,54.65
2023-04-20T00:24:15.124Z,54.71
2023-04-20T00:26:43.412Z,54.97
2023-04-20T00:29:12.088Z,54.95
2023-04-20T00:31:40.486Z,54.89
2023-04-20T00:34:08.848Z,55.06
2023-04-20T00:36:37.344Z,55.23
2023-04-20T00:39:06.225Z,55.33
2023-04-20T00:41:34.808Z,55.31
2023-04-20T00:44:03.192Z,55.56
2023-04-20T00:46:32.349Z,55.69
2023-04-20T00:49:01.283Z,55.88
2023-04-20T00:51:29.868Z,55.87
2023-04-20T00:53:59.854Z,56.08
2023-04-20T00:56:28.166Z,56.15
2023-04-20T00:58:57.263Z,56.36
2023-04-20T01:01:25.988Z,56.29
2023-04-20T01:03:54.504Z,56.51
2023-04-20T01:06:23.056Z,56.50
2023-04-20T01:09:12.800Z,56.52
2023-04-20T01:11:41.180Z,56.53
2023-04-20T01:14:09.562Z,56.84
2023-04-20T01:16:37.973Z,56.64
2023-04-20T01:19:06.422Z,56.53
2023-04-20T01:21:35.022Z,56.52
2023-04-20T01:24:03.699Z,56.59
2023-04-20T01:26:34.761Z,56.71
2023-04-20T01:29:03.124Z,56.86
2023-04-20T01:31:32.045Z,56.59
2023-04-20T01:34:00.701Z,56.56
2023-04-20T01:36:29.709Z,56.62
2023-04-20T01:38:58.396Z,56.52
2023-04-20T01:41:28.189Z,56.49
2023-04-20T01:43:58.353Z,56.64
2023-04-20T01:46:26.841Z,56.47
2023-04-20T01:48:55.496Z,56.20
2023-04-20T01:51:23.954Z,56.44
2023-04-20T01:53:52.361Z,56.44
2023-04-20T01:56:20.954Z,56.32
2023-04-20T01:58:50.163Z,56.17
2023-04-20T02:01:18.679Z,56.23
2023-04-20T02:03:49.815Z,56.38
2023-04-20T02:06:18.358Z,56.39
2023-04-20T02:08:46.742Z,56.38
2023-04-20T02:11:15.558Z,56.47
2023-04-20T02:13:43.809Z,56.38
2023-04-20T02:16:13.011Z,56.50
2023-04-20T02:18:41.391Z,56.62
2023-04-20T02:21:09.873Z,56.48
2023-04-20T02:23:38.968Z,56.48
2023-04-20T02:26:07.353Z,56.63
2023-04-20T02:28:37.062Z,56.72
2023-04-20T02:31:06.613Z,56.86
2023-04-20T02:33:35.167Z,56.90
2023-04-20T02:36:04.046Z,56.99
2023-04-20T02:38:34.212Z,57.09
2023-04-20T02:41:02.658Z,57.19
2023-04-20T02:43:31.444Z,57.23
2023-04-20T02:46:00.481Z,57.21
2023-04-20T02:48:29.030Z,57.19
2023-04-20T02:50:57.616Z,57.18
2023-04-20T02:53:28.150Z,57.21
2023-04-20T02:56:09.221Z,57.29
2023-04-20T02:58:43.957Z,57.55
2023-04-20T03:01:20.378Z,57.45
2023-04-20T03:03:50.052Z,57.34
2023-04-20T03:06:19.031Z,57.18
2023-04-20T03:08:52.322Z,57.38
2023-04-20T03:11:41.288Z,57.26
2023-04-20T03:14:10.387Z,57.02
2023-04-20T03:16:42.139Z,57.01
2023-04-20T03:19:11.654Z,57.01
2023-04-20T03:21:40.751Z,56.79
2023-04-20T03:24:09.342Z,56.77
2023-04-20T03:26:38.125Z,56.57
2023-04-20T03:29:16.675Z,56.53
2023-04-20T03:31:45.581Z,56.33
2023-04-20T03:34:14.655Z,56.11
2023-04-20T03:36:43.521Z,56.32
2023-04-20T03:39:12.210Z,56.30
2023-04-20T03:41:40.899Z,55.98
2023-04-20T03:44:09.403Z,56.07
2023-04-20T03:46:38.585Z,56.12
2023-04-20T03:49:07.094Z,55.95
2023-04-20T03:51:35.448Z,55.99
2023-04-20T03:54:04.033Z,55.99
2023-04-20T03:56:32.515Z,55.70
2023-04-20T03:59:01.218Z,56.01
2023-04-20T04:01:29.997Z,56.17
2023-04-20T04:03:59.174Z,56.16
2023-04-20T04:06:28.604Z,56.03
2023-04-20T04:08:57.082Z,55.94
2023-04-20T04:11:26.324Z,55.82
2023-04-20T04:13:54.669Z,55.18
2023-04-20T04:16:23.412Z,55.03
2023-04-20T04:18:51.841Z,55.13
2023-04-20T04:21:22.880Z,55.17
2023-04-20T04:23:56.688Z,54.96
2023-04-20T04:27:05.528Z,54.32
2023-04-20T04:29:38.801Z,54.47
2023-04-20T04:32:09.876Z,54.52
2023-04-20T04:34:39.285Z,54.54
2023-04-20T04:37:07.670Z,54.32
2023-04-20T04:39:46.969Z,54.07
2023-04-20T04:42:21.614Z,54.00
2023-04-20T04:44:52.664Z,53.94
2023-04-20T04:47:29.908Z,54.07
2023-04-20T04:50:00.080Z,54.08
2023-04-20T04:52:31.422Z,54.24
2023-04-20T04:54:59.911Z,53.94
2023-04-20T04:57:28.703Z,53.88
2023-04-20T04:59:59.328Z,53.57
2023-04-20T05:02:28.078Z,53.83
2023-04-20T05:04:57.218Z,53.80
2023-04-20T05:07:25.602Z,53.82
2023-04-20T05:09:54.384Z,53.42
2023-04-20T05:12:23.074Z,53.45
2023-04-20T05:14:52.700Z,53.56
2023-04-20T05:17:21.001Z,53.61
2023-04-20T05:19:49.344Z,53.68
2023-04-20T05:22:17.725Z,53.45
2023-04-20T05:24:46.416Z,53.12
2023-04-20T05:27:14.594Z,53.28
2023-04-20T05:29:42.873Z,53.79
2023-04-20T05:32:12.375Z,53.53
2023-04-20T05:34:40.934Z,53.25
2023-04-20T05:37:09.856Z,53.61
2023-04-20T05:39:38.286Z,53.73
2023-04-20T05:42:06.725Z,53.98
2023-04-20T05:44:36.875Z,54.04
2023-04-20T05:47:06.759Z,54.34
2023-04-20T05:49:35.656Z,54.66
2023-04-20T05:52:04.463Z,55.52
2023-04-20T05:54:32.946Z,56.14
2023-04-20T05:57:01.420Z,56.19
2023-04-20T05:59:29.833Z,56.33
2023-04-20T06:01:58.302Z,56.54
2023-04-20T06:04:27.010Z,56.73
2023-04-20T06:06:55.867Z,56.29
2023-04-20T06:09:24.279Z,56.31
2023-04-20T06:11:52.731Z,56.73
2023-04-20T06:14:21.012Z,57.09
2023-04-20T06:16:49.307Z,57.89
2023-04-20T06:19:18.107Z,58.94
2023-04-20T06:21:47.297Z,59.91
2023-04-20T06:24:16.075Z,61.47
2023-04-20T06:26:44.463Z,62.83
2023-04-20T06:29:13.250Z,63.86
2023-04-20T06:31:41.747Z,64.70
2023-04-20T06:34:10.244Z,65.62
2023-04-20T06:36:39.725Z,65.81
2023-04-20T06:39:08.104Z,66.07
2023-04-20T06:41:38.960Z,66.49
2023-04-20T06:44:07.743Z,66.96
2023-04-20T06:46:36.572Z,67.53
2023-04-20T06:49:05.115Z,67.90
2023-04-20T06:51:34.927Z,68.00
2023-04-20T06:56:20.440Z,68.52
2023-04-20T06:59:07.865Z,68.78
2023-04-20T07:01:36.490Z,69.26
2023-04-20T07:04:05.210Z,69.61
2023-04-20T07:06:34.649Z,69.36
2023-04-20T07:09:04.558Z,69.45
2023-04-20T07:11:52.113Z,69.42
2023-04-20T07:14:20.786Z,68.98
2023-04-20T07:16:52.795Z,68.33
2023-04-20T07:19:21.439Z,68.03
2023-04-20T07:21:49.822Z,67.82
2023-04-20T07:24:18.198Z,67.00
2023-04-20T07:26:46.587Z,67.13
2023-04-20T07:29:15.416Z,66.71
2023-04-20T07:31:45.415Z,66.62
2023-04-20T07:34:13.883Z,65.99
2023-04-20T07:36:42.284Z,65.51
2023-04-20T07:39:10.646Z,65.19
2023-04-20T07:41:39.436Z,65.39
2023-04-20T07:44:07.821Z,65.28
2023-04-20T07:46:37.641Z,65.26
2023-04-20T07:49:06.119Z,65.17
2023-04-20T07:51:36.657Z,65.12
2023-04-20T07:54:05.443Z,64.83
2023-04-20T07:56:34.751Z,64.53
2023-04-20T07:59:03.133Z,64.70
2023-04-20T08:01:32.536Z,64.49
2023-04-20T08:04:01.165Z,64.01
2023-04-20T08:06:29.815Z,63.93
2023-04-20T08:08:58.297Z,63.93
2023-04-20T08:13:57.235Z,63.76
2023-04-20T08:16:27.339Z,64.39
2023-04-20T08:18:56.027Z,64.24
2023-04-20T08:21:25.541Z,64.25
2023-04-20T08:23:54.935Z,64.26
2023-04-20T08:26:25.570Z,64.16
2023-04-20T08:28:54.070Z,64.17
2023-04-20T08:31:22.716Z,64.72
2023-04-20T08:33:51.639Z,64.63
2023-04-20T08:36:20.135Z,64.20
2023-04-20T08:38:58.754Z,64.51
2023-04-20T08:41:27.224Z,64.46
2023-04-20T08:43:55.917Z,64.18
2023-04-20T08:46:24.989Z,64.53
2023-04-20T08:48:55.958Z,64.31
2023-04-20T08:51:24.760Z,64.42
2023-04-20T08:53:53.348Z,64.09
2023-04-20T08:56:39.670Z,63.87
2023-04-20T08:59:10.687Z,63.59
2023-04-20T09:01:42.196Z,64.14
2023-04-20T09:04:22.036Z,63.96
2023-04-20T09:06:52.492Z,64.16
2023-04-20T09:09:21.617Z,64.45
2023-04-20T09:12:07.449Z,64.26
2023-04-20T09:14:45.124Z,64.57
2023-04-20T09:17:14.833Z,64.75
2023-04-20T09:19:46.854Z,64.87
2023-04-20T09:22:15.272Z,64.86
2023-04-20T09:24:43.653Z,65.06
2023-04-20T09:27:18.790Z,64.80
2023-04-20T09:30:01.308Z,65.40
2023-04-20T09:32:30.244Z,65.59
2023-04-20T09:34:58.682Z,65.85
2023-04-20T09:37:28.329Z,66.12
2023-04-20T09:40:00.073Z,67.06
2023-04-20T09:42:29.266Z,68.04
2023-04-20T09:44:57.738Z,68.84
2023-04-20T09:47:27.699Z,69.81
2023-04-20T09:49:56.359Z,70.47
2023-04-20T09:52:25.852Z,71.08
2023-04-20T09:54:54.943Z,71.45
2023-04-20T09:57:23.234Z,71.49
2023-04-20T09:59:53.214Z,71.96
2023-04-20T10:02:22.203Z,72.25
2023-04-20T10:04:52.777Z,72.49
2023-04-20T10:07:28.792Z,72.74
2023-04-20T10:10:11.163Z,72.97
2023-04-20T10:12:48.548Z,73.08
2023-04-20T10:15:17.234Z,73.57
2023-04-20T10:17:46.635Z,73.91
2023-04-20T10:20:22.798Z,74.26
2023-04-20T10:22:52.198Z,74.94
2023-04-20T10:25:23.525Z,75.41
2023-04-20T10:27:59.920Z,75.63
2023-04-20T10:30:29.271Z,75.96
2023-04-20T10:33:07.464Z,76.13
2023-04-20T10:35:55.332Z,76.05
2023-04-20T10:38:37.072Z,76.43
2023-04-20T10:41:12.878Z,75.81
2023-04-20T10:43:43.893Z,75.86
2023-04-20T10:46:20.400Z,76.01
2023-04-20T10:49:17.677Z,75.68
2023-04-20T10:51:50.012Z,74.67
2023-04-20T10:54:18.876Z,73.77
2023-04-20T10:56:48.588Z,72.20
2023-04-20T10:59:18.678Z,71.62
2023-04-20T11:01:47.829Z,71.23
2023-04-20T11:04:18.640Z,70.01
2023-04-20T11:06:49.084Z,69.79
2023-04-20T11:09:20.220Z,69.08
2023-04-20T11:12:18.808Z,68.75
2023-04-20T11:15:06.387Z,67.46
2023-04-20T11:17:35.709Z,67.26
2023-04-20T11:20:11.191Z,66.39
2023-04-20T11:22:40.188Z,66.10
2023-04-20T11:25:10.888Z,66.06
2023-04-20T11:27:41.121Z,65.73
2023-04-20T11:30:10.195Z,66.22
2023-04-20T11:32:39.642Z,66.98
2023-04-20T11:35:11.163Z,66.70
2023-04-20T11:37:51.575Z,66.82
2023-04-20T11:40:20.569Z,66.94
2023-04-20T11:42:48.943Z,67.01
2023-04-20T11:45:18.256Z,66.91
2023-04-20T11:47:47.556Z,67.65
2023-04-20T11:50:16.131Z,67.46
2023-04-20T11:52:44.728Z,67.64
2023-04-20T11:55:13.103Z,67.64
2023-04-20T11:57:41.798Z,67.89
2023-04-20T12:00:10.998Z,67.85
2023-04-20T12:02:45.523Z,68.21
2023-04-20T12:05:14.397Z,68.07
2023-04-20T12:07:44.037Z,68.31
2023-04-20T12:10:12.506Z,68.04
2023-04-20T12:12:42.365Z,67.79
2023-04-20T12:15:11.274Z,66.70
2023-04-20T12:17:40.496Z,66.82
2023-04-20T12:20:12.513Z,66.60
2023-04-20T12:22:41.271Z,66.44
2023-04-20T12:25:10.164Z,66.61
2023-04-20T12:27:38.992Z,66.60
2023-04-20T12:30:09.457Z,66.58
2023-04-20T12:32:39.905Z,66.91
2023-04-20T12:35:09.733Z,66.60
2023-04-20T12:37:38.430Z,65.88
2023-04-20T12:40:07.700Z,65.48
2023-04-20T12:42:36.376Z,65.34
2023-04-20T12:45:06.550Z,65.63
2023-04-20T12:47:34.937Z,64.67
2023-04-20T12:50:04.132Z,64.29
2023-04-20T12:52:32.802Z,64.38
2023-04-20T12:55:01.914Z,64.62
2023-04-20T12:57:31.740Z,65.48
2023-04-20T13:00:02.993Z,65.73
2023-04-20T13:02:33.655Z,65.62
2023-04-20T13:05:02.301Z,65.17
2023-04-20T13:07:31.593Z,65.47
2023-04-20T13:10:02.942Z,64.58
2023-04-20T13:12:31.628Z,64.22
2023-04-20T13:15:00.148Z,63.79
2023-04-20T13:17:29.143Z,62.97
2023-04-20T13:19:57.592Z,62.60
2023-04-20T13:22:25.970Z,62.55
2023-04-20T13:24:54.389Z,61.53
2023-04-20T13:27:22.837Z,61.10
2023-04-20T13:29:51.326Z,61.14
2023-04-20T13:32:20.033Z,59.68
2023-04-20T13:34:48.397Z,59.25
2023-04-20T13:37:16.888Z,59.82
2023-04-20T13:39:45.271Z,58.82
2023-04-20T13:42:13.745Z,58.90
2023-04-20T13:44:42.129Z,58.42
2023-04-20T13:47:10.434Z,58.33
2023-04-20T13:49:38.992Z,58.41
2023-04-20T13:52:07.394Z,59.43
2023-04-20T13:54:36.781Z,59.06
2023-04-20T13:57:05.166Z,59.56
2023-04-20T13:59:33.646Z,59.90
2023-04-20T14:02:02.236Z,59.79
2023-04-20T14:04:30.852Z,59.48
2023-04-20T14:06:59.401Z,59.67
2023-04-20T14:09:28.911Z,60.06
2023-04-20T14:11:57.697Z,59.64
2023-04-20T14:14:26.183Z,59.38
2023-04-20T14:16:54.738Z,59.51
2023-04-20T14:19:23.149Z,59.99
2023-04-20T14:21:51.958Z,60.64
2023-04-20T14:24:20.710Z,60.79
2023-04-20T14:26:51.400Z,60.55
2023-04-20T14:29:19.848Z,59.50
2023-04-20T14:31:48.396Z,58.86
2023-04-20T14:34:17.475Z,57.26
2023-04-20T14:36:46.222Z,57.78
2023-04-20T14:39:14.913Z,57.20
2023-04-20T14:41:43.396Z,56.79
2023-04-20T14:44:11.768Z,56.93
2023-04-20T14:46:42.620Z,56.65
2023-04-20T14:49:11.401Z,57.25
2023-04-20T14:51:39.881Z,56.84
2023-04-20T14:54:08.367Z,56.87
2023-04-20T14:56:36.949Z,57.10
2023-04-20T14:59:05.325Z,57.61
2023-04-20T15:01:34.170Z,57.92
2023-04-20T15:04:03.248Z,58.03
2023-04-20T15:06:34.677Z,58.27
2023-04-20T15:09:03.353Z,58.46
2023-04-20T15:11:32.351Z,58.56
2023-04-20T15:14:00.727Z,57.99
2023-04-20T15:16:29.785Z,57.75
2023-04-20T15:18:58.209Z,57.79
2023-04-20T15:21:27.202Z,57.93
2023-04-20T15:23:55.583Z,57.97
2023-04-20T15:26:24.071Z,58.10
2023-04-20T15:28:52.447Z,57.80
2023-04-20T15:31:20.973Z,57.31
2023-04-20T15:33:49.930Z,57.80
2023-04-20T15:36:19.005Z,57.55
2023-04-20T15:38:47.313Z,57.29
2023-04-20T15:41:16.505Z,57.40
2023-04-20T15:43:44.995Z,57.05
2023-04-20T15:46:13.387Z,57.16
2023-04-20T15:48:41.973Z,56.91
2023-04-20T15:51:10.450Z,57.19
2023-04-20T15:53:39.134Z,57.05
2023-04-20T15:56:08.134Z,56.64
2023-04-20T15:58:37.233Z,56.64
2023-04-20T16:01:05.870Z,56.67
2023-04-20T16:03:34.504Z,56.50
2023-04-20T16:06:03.607Z,56.44
2023-04-20T16:08:32.495Z,56.65
2023-04-20T16:11:03.437Z,56.79
2023-04-20T16:13:32.436Z,56.78
2023-04-20T16:16:01.273Z,56.95
2023-04-20T16:18:30.136Z,56.84
2023-04-20T16:20:59.224Z,56.86
2023-04-20T16:23:28.319Z,57.30
2023-04-20T16:25:56.903Z,57.58
2023-04-20T16:28:26.515Z,57.77
2023-04-20T16:30:54.962Z,57.74
2023-04-20T16:33:24.305Z,57.77
2023-04-20T16:35:52.789Z,57.88
2023-04-20T16:38:21.587Z,57.86
2023-04-20T16:40:49.969Z,57.93
2023-04-20T16:43:18.662Z,57.99
2023-04-20T16:45:48.694Z,57.91
2023-04-20T16:48:17.060Z,57.67
2023-04-20T16:50:45.848Z,57.64
2023-04-20T16:53:14.232Z,57.84
2023-04-20T16:55:42.920Z,58.00
2023-04-20T16:58:11.621Z,58.07
2023-04-20T17:00:40.539Z,57.86
2023-04-20T17:03:10.940Z,57.99
2023-04-20T17:05:41.593Z,58.10
2023-04-20T17:08:10.768Z,57.74
2023-04-20T17:10:39.665Z,57.48
2023-04-20T17:13:08.658Z,57.25
2023-04-20T17:15:37.146Z,56.70
2023-04-20T17:18:07.114Z,56.19
2023-04-20T17:20:35.855Z,55.84
2023-04-20T17:23:04.265Z,55.55
2023-04-20T17:25:33.536Z,55.35
2023-04-20T17:28:02.958Z,55.42
2023-04-20T17:30:31.735Z,55.41
2023-04-20T17:33:01.036Z,55.43
2023-04-20T17:35:30.053Z,54.76
2023-04-20T17:37:59.850Z,54.20
2023-04-20T17:40:28.345Z,53.86
2023-04-20T17:42:56.816Z,53.28
2023-04-20T17:45:25.613Z,53.95
2023-04-20T17:47:54.036Z,54.64
2023-04-20T17:50:23.088Z,55.11
2023-04-20T17:52:52.005Z,55.47
2023-04-20T17:55:20.678Z,55.57
2023-04-20T17:57:49.162Z,55.87
2023-04-20T18:00:18.974Z,56.34
2023-04-20T18:02:47.589Z,56.87
2023-04-20T18:05:17.272Z,57.70
2023-04-20T18:07:45.658Z,57.93
2023-04-20T18:10:15.883Z,58.16
2023-04-20T18:12:45.284Z,58.51
2023-04-20T18:15:13.875Z,58.83
2023-04-20T18:17:43.112Z,59.55
2023-04-20T18:20:11.667Z,59.50
2023-04-20T18:22:40.356Z,59.41
2023-04-20T18:25:09.417Z,59.31
2023-04-20T18:27:39.887Z,59.19
2023-04-20T18:30:09.423Z,59.06
2023-04-20T18:32:38.808Z,59.07
2023-04-20T18:35:07.902Z,59.34
2023-04-20T18:37:37.513Z,58.98
2023-04-20T18:40:07.392Z,58.86
2023-04-20T18:42:35.700Z,58.80
2023-04-20T18:45:06.446Z,58.79
2023-04-20T18:47:35.540Z,58.89
2023-04-20T18:50:04.876Z,58.44
2023-04-20T18:52:33.844Z,58.01
2023-04-20T18:55:02.223Z,57.65
2023-04-20T18:57:31.008Z,57.20
2023-04-20T18:59:59.392Z,56.40
2023-04-20T19:02:28.111Z,56.07
2023-04-20T19:04:56.768Z,55.98
2023-04-20T19:07:25.156Z,55.73
2023-04-20T19:12:49.668Z,55.53
2023-04-20T19:15:25.650Z,55.20
2023-04-20T19:17:55.526Z,54.92
2023-04-20T19:20:24.606Z,54.37
2023-04-20T19:22:53.125Z,53.98
2023-04-20T19:25:21.816Z,53.76
2023-04-20T19:27:51.628Z,53.51
2023-04-20T19:30:20.215Z,53.44
2023-04-20T19:32:48.601Z,53.24
2023-04-20T19:35:17.184Z,52.78
2023-04-20T19:37:45.566Z,52.13
2023-04-20T19:40:13.950Z,51.90
2023-04-20T19:42:42.638Z,52.03
2023-04-20T19:45:11.838Z,51.86
2023-04-20T19:47:40.373Z,51.68
2023-04-20T19:50:08.911Z,51.81
2023-04-20T19:52:38.111Z,51.53
2023-04-20T19:55:07.284Z,51.58
2023-04-20T19:57:36.029Z,51.54
2023-04-20T20:00:05.931Z,52.62
2023-04-20T20:02:41.785Z,53.84
2023-04-20T20:05:10.775Z,54.96
2023-04-20T20:07:40.796Z,55.86
2023-04-20T20:10:09.279Z,56.86
2023-04-20T20:12:38.477Z,57.54
2023-04-20T20:15:07.589Z,58.28
2023-04-20T20:17:36.286Z,59.02
2023-04-20T20:20:06.311Z,59.74
2023-04-20T20:22:34.772Z,60.31
2023-04-20T20:25:04.383Z,60.96
2023-04-20T20:27:33.493Z,61.46
2023-04-20T20:30:02.167Z,61.90
2023-04-20T20:32:31.707Z,62.19
2023-04-20T20:35:00.979Z,62.25
2023-04-20T20:37:35.003Z,62.25
2023-04-20T20:40:08.911Z,62.39
2023-04-20T20:42:42.595Z,62.52
2023-04-20T20:45:12.889Z,62.74
2023-04-20T20:47:42.977Z,62.62
2023-04-20T20:50:12.170Z,62.53
2023-04-20T20:52:41.468Z,62.63
2023-04-20T20:55:10.574Z,62.74
2023-04-20T20:57:39.151Z,62.82
2023-04-20T21:00:10.158Z,62.95
2023-04-20T21:02:39.239Z,63.09
2023-04-20T21:05:08.191Z,63.24
2023-04-20T21:07:37.496Z,63.40
2023-04-20T21:10:06.693Z,63.50
2023-04-20T21:12:35.283Z,63.74
2023-04-20T21:15:03.970Z,64.00
2023-04-20T21:17:32.503Z,63.99
2023-04-20T21:20:01.157Z,64.10
2023-04-20T21:22:30.464Z,64.17
2023-04-20T21:24:58.935Z,64.11
2023-04-20T21:27:28.239Z,64.19
2023-04-20T21:32:54.442Z,64.20
2023-04-20T21:35:22.881Z,64.38
2023-04-20T21:37:51.567Z,64.45
2023-04-20T21:40:20.368Z,64.66
2023-04-20T21:42:48.738Z,64.68
2023-04-20T21:45:17.232Z,64.69
2023-04-20T21:47:45.746Z,64.65
2023-04-20T21:50:14.301Z,64.59
2023-04-20T21:52:43.303Z,64.68
2023-04-20T21:55:11.878Z,64.66
2023-04-20T21:57:40.261Z,64.68
2023-04-20T22:00:09.771Z,64.97
2023-04-20T22:02:45.729Z,64.96
2023-04-20T22:05:14.312Z,65.09
2023-04-20T22:07:43.411Z,65.08
2023-04-20T22:10:12.107Z,64.98
2023-04-20T22:12:42.631Z,64.97
2023-04-20T22:15:12.647Z,64.95
2023-04-20T22:17:45.750Z,64.98
2023-04-20T22:20:15.012Z,65.03
2023-04-20T22:22:43.428Z,65.08
2023-04-20T22:25:11.986Z,65.22
2023-04-20T22:27:40.500Z,65.19
2023-04-20T22:30:09.854Z,65.46
2023-04-20T22:32:38.969Z,65.56
2023-04-20T22:35:08.225Z,65.57
2023-04-20T22:37:37.110Z,65.74
2023-04-20T22:40:06.650Z,65.64
2023-04-20T22:42:38.882Z,65.79
2023-04-20T22:45:10.662Z,66.18
2023-04-20T22:47:39.575Z,66.66
2023-04-20T22:50:09.974Z,67.09
2023-04-20T22:52:40.196Z,67.46
2023-04-20T22:55:09.444Z,67.52
2023-04-20T22:57:39.375Z,67.39
2023-04-20T23:00:10.708Z,67.37
2023-04-20T23:02:40.650Z,67.33
2023-04-20T23:05:09.823Z,67.27
2023-04-20T23:07:39.695Z,67.15
2023-04-20T23:10:09.465Z,66.90
2023-04-20T23:12:38.607Z,66.73
2023-04-20T23:15:08.411Z,66.76
2023-04-20T23:17:37.084Z,66.85
2023-04-20T23:20:10.434Z,66.96
2023-04-20T23:22:38.892Z,67.11
2023-04-20T23:25:09.940Z,67.24
2023-04-20T23:27:38.609Z,67.24
2023-04-20T23:30:08.975Z,67.28
2023-04-20T23:32:38.183Z,67.27
2023-04-20T23:35:07.465Z,67.18
2023-04-20T23:37:35.948Z,67.26
2023-04-20T23:40:07.392Z,67.38
2023-04-20T23:42:37.734Z,67.33
2023-04-20T23:45:06.494Z,67.50
2023-04-20T23:47:34.857Z,67.56
2023-04-20T23:50:03.687Z,67.78
2023-04-20T23:52:32.374Z,67.54
2023-04-20T23:55:00.863Z,67.53
2023-04-20T23:57:29.241Z,67.50
2023-04-20T23:59:57.726Z,67.62
